createdAt,value
2018-09-03T00:01:22.644Z,6.00
2018-09-03T00:03:50.637Z,5.40
2018-09-03T00:06:18.684Z,6.13
2018-09-03T00:08:46.762Z,6.27
2018-09-03T00:11:14.853Z,6.47
2018-09-03T00:13:43.241Z,6.90
2018-09-03T00:16:11.253Z,6.03
2018-09-03T00:18:39.272Z,5.87
2018-09-03T00:21:07.629Z,7.60
2018-09-03T00:23:35.596Z,7.27
2018-09-03T00:26:03.665Z,6.40
2018-09-03T00:28:31.704Z,6.67
2018-09-03T00:31:05.278Z,6.40
2018-09-03T00:33:38.722Z,6.50
2018-09-03T00:36:12.481Z,6.00
2018-09-03T00:38:46.057Z,6.67
2018-09-03T00:41:19.584Z,6.27
2018-09-03T00:43:53.230Z,6.10
2018-09-03T00:46:26.786Z,5.70
2018-09-03T00:48:54.843Z,6.57
2018-09-03T00:51:22.918Z,6.67
2018-09-03T00:53:50.928Z,5.73
2018-09-03T00:56:19.072Z,5.43
2018-09-03T00:58:47.152Z,5.73
2018-09-03T01:01:15.234Z,6.00
2018-09-03T01:03:43.251Z,6.13
2018-09-03T01:06:11.299Z,6.30
2018-09-03T01:08:39.402Z,6.40
2018-09-03T01:11:07.990Z,5.93
2018-09-03T01:13:36.069Z,6.77
2018-09-03T01:16:04.073Z,6.60
2018-09-03T01:18:36.372Z,6.33
2018-09-03T01:21:04.413Z,6.20
2018-09-03T01:23:32.517Z,6.33
2018-09-03T01:26:00.600Z,6.03
2018-09-03T01:28:28.596Z,6.50
2018-09-03T01:30:56.663Z,5.70
2018-09-03T01:33:24.709Z,6.60
2018-09-03T01:35:52.816Z,6.83
2018-09-03T01:38:21.033Z,6.37
2018-09-03T01:40:49.047Z,6.13
2018-09-03T01:43:17.085Z,6.90
2018-09-03T01:45:45.288Z,6.77
2018-09-03T01:48:13.316Z,6.10
2018-09-03T01:50:41.352Z,7.07
2018-09-03T01:55:44.152Z,5.87
2018-09-03T01:58:12.156Z,5.60
2018-09-03T02:00:40.157Z,6.07
2018-09-03T02:03:08.509Z,6.27
2018-09-03T02:05:36.524Z,5.20
2018-09-03T02:08:04.876Z,5.80
2018-09-03T02:10:32.969Z,6.40
2018-09-03T02:13:01.046Z,5.83
2018-09-03T02:15:29.098Z,6.23
2018-09-03T02:17:57.185Z,5.50
2018-09-03T02:20:25.204Z,7.20
2018-09-03T02:22:53.517Z,7.17
2018-09-03T02:25:21.522Z,6.07
2018-09-03T02:27:49.529Z,5.30
2018-09-03T02:30:17.582Z,6.37
2018-09-03T02:32:45.577Z,6.43
2018-09-03T02:35:13.640Z,7.23
2018-09-03T02:37:41.644Z,5.87
2018-09-03T02:40:09.649Z,6.30
2018-09-03T02:42:37.684Z,5.57
2018-09-03T02:45:07.068Z,6.13
2018-09-03T02:47:35.113Z,5.70
2018-09-03T02:50:03.129Z,6.67
2018-09-03T02:52:31.531Z,6.47
2018-09-03T02:54:59.520Z,7.23
2018-09-03T02:57:27.534Z,6.90
2018-09-03T02:59:55.572Z,5.93
2018-09-03T03:02:23.724Z,5.90
2018-09-03T03:04:51.978Z,7.27
2018-09-03T03:07:19.981Z,7.70
2018-09-03T03:09:48.056Z,7.03
2018-09-03T03:12:25.909Z,6.90
2018-09-03T03:14:57.016Z,6.37
2018-09-03T03:17:25.162Z,6.13
2018-09-03T03:19:53.599Z,6.50
2018-09-03T03:22:21.631Z,6.43
2018-09-03T03:24:50.674Z,6.40
2018-09-03T03:27:18.747Z,6.13
2018-09-03T03:29:46.818Z,7.07
2018-09-03T03:32:14.877Z,6.67
2018-09-03T03:34:42.890Z,6.20
2018-09-03T03:37:11.279Z,7.67
2018-09-03T03:39:39.276Z,7.00
2018-09-03T03:42:07.284Z,6.80
2018-09-03T03:44:35.601Z,7.00
2018-09-03T03:47:03.714Z,7.17
2018-09-03T03:49:31.797Z,7.13
2018-09-03T03:51:59.841Z,6.77
2018-09-03T03:54:28.013Z,6.77
2018-09-03T03:56:56.063Z,6.83
2018-09-03T03:59:24.149Z,7.00
2018-09-03T04:01:52.316Z,7.40
2018-09-03T04:04:20.334Z,8.00
2018-09-03T04:06:48.317Z,6.87
2018-09-03T04:09:16.369Z,6.93
2018-09-03T04:11:44.391Z,7.33
2018-09-03T04:14:12.741Z,7.57
2018-09-03T04:16:40.750Z,7.40
2018-09-03T04:19:08.811Z,7.20
2018-09-03T04:21:36.925Z,8.00
2018-09-03T04:24:04.946Z,6.90
2018-09-03T04:26:33.006Z,7.50
2018-09-03T04:29:01.005Z,8.13
2018-09-03T04:31:29.022Z,8.23
2018-09-03T04:33:57.070Z,8.17
2018-09-03T04:36:25.176Z,8.70
2018-09-03T04:38:53.291Z,6.93
2018-09-03T04:41:21.366Z,7.57
2018-09-03T04:43:49.435Z,8.03
2018-09-03T04:46:17.926Z,8.73
2018-09-03T04:48:46.134Z,6.93
2018-09-03T04:51:14.141Z,8.07
2018-09-03T04:53:42.145Z,7.93
2018-09-03T04:56:10.276Z,8.47
2018-09-03T04:58:38.282Z,7.47
2018-09-03T05:01:06.469Z,6.50
2018-09-03T05:03:34.521Z,8.30
2018-09-03T05:06:02.591Z,7.83
2018-09-03T05:08:30.904Z,7.80
2018-09-03T05:10:58.910Z,7.07
2018-09-03T05:13:26.918Z,7.90
2018-09-03T05:15:54.961Z,6.77
2018-09-03T05:18:22.974Z,8.33
2018-09-03T05:20:51.009Z,7.20
2018-09-03T05:23:19.057Z,6.77
2018-09-03T05:25:47.186Z,7.33
2018-09-03T05:28:15.185Z,7.13
2018-09-03T05:30:43.225Z,8.40
2018-09-03T05:33:11.534Z,7.30
2018-09-03T05:35:39.630Z,6.87
2018-09-03T05:38:07.712Z,6.93
2018-09-03T05:40:35.818Z,8.37
2018-09-03T05:43:03.923Z,7.63
2018-09-03T05:45:31.913Z,7.23
2018-09-03T05:47:59.960Z,8.43
2018-09-03T05:50:28.088Z,8.63
2018-09-03T05:52:56.004Z,7.33
2018-09-03T05:55:24.104Z,9.27
2018-09-03T05:57:52.177Z,8.33
2018-09-03T06:00:20.189Z,9.13
2018-09-03T06:02:55.001Z,8.80
2018-09-03T06:05:23.005Z,8.00
2018-09-03T06:07:51.043Z,8.57
2018-09-03T06:10:19.356Z,9.90
2018-09-03T06:12:47.420Z,8.80
2018-09-03T06:15:15.438Z,8.90
2018-09-03T06:17:43.866Z,11.17
2018-09-03T06:20:11.817Z,8.53
2018-09-03T06:22:39.882Z,9.60
2018-09-03T06:25:08.273Z,8.87
2018-09-03T06:27:36.362Z,9.13
2018-09-03T06:30:04.737Z,8.50
2018-09-03T06:32:32.837Z,9.23
2018-09-03T06:35:00.922Z,8.27
2018-09-03T06:37:28.974Z,9.50
2018-09-03T06:39:57.093Z,8.90
2018-09-03T06:42:25.169Z,8.47
2018-09-03T06:44:53.172Z,8.20
2018-09-03T06:47:21.213Z,8.67
2018-09-03T06:49:49.234Z,9.13
2018-09-03T06:52:17.233Z,7.53
2018-09-03T06:54:45.298Z,8.60
2018-09-03T06:57:13.561Z,8.30
2018-09-03T06:59:41.653Z,7.67
2018-09-03T07:02:09.629Z,7.53
2018-09-03T07:04:37.830Z,7.37
2018-09-03T07:07:06.462Z,8.40
2018-09-03T07:09:34.469Z,7.43
2018-09-03T07:12:02.481Z,7.43
2018-09-03T07:14:30.516Z,7.70
2018-09-03T07:16:58.522Z,7.13
2018-09-03T07:19:26.773Z,7.40
2018-09-03T07:21:54.816Z,7.80
2018-09-03T07:24:22.922Z,7.70
2018-09-03T07:26:50.929Z,8.03
2018-09-03T07:29:19.173Z,8.47
2018-09-03T07:31:47.469Z,7.30
2018-09-03T07:34:15.478Z,6.90
2018-09-03T07:36:43.483Z,7.10
2018-09-03T07:39:11.613Z,7.47
2018-09-03T07:41:39.649Z,7.63
2018-09-03T07:44:07.814Z,7.70
2018-09-03T07:46:35.800Z,6.47
2018-09-03T07:49:03.913Z,7.93
2018-09-03T07:51:31.873Z,6.57
2018-09-03T07:53:59.894Z,7.40
2018-09-03T07:56:27.964Z,7.63
2018-09-03T07:58:55.997Z,7.40
2018-09-03T08:01:24.007Z,7.80
2018-09-03T08:03:52.057Z,7.23
2018-09-03T08:06:20.137Z,6.40
2018-09-03T08:08:48.217Z,6.53
2018-09-03T08:11:16.257Z,8.57
2018-09-03T08:13:44.287Z,6.77
2018-09-03T08:16:12.773Z,7.20
2018-09-03T08:18:41.400Z,8.13
2018-09-03T08:21:09.409Z,6.40
2018-09-03T08:23:37.401Z,6.53
2018-09-03T08:26:05.781Z,6.60
2018-09-03T08:28:33.825Z,6.80
2018-09-03T08:31:01.882Z,7.90
2018-09-03T08:33:29.989Z,8.03
2018-09-03T08:35:58.577Z,7.63
2018-09-03T08:38:26.575Z,7.50
2018-09-03T08:40:54.654Z,7.10
2018-09-03T08:43:22.681Z,7.10
2018-09-03T08:45:50.700Z,8.00
2018-09-03T08:48:18.796Z,7.57
2018-09-03T08:50:46.888Z,7.30
2018-09-03T08:53:15.206Z,7.20
2018-09-03T08:55:43.245Z,6.97
2018-09-03T08:58:11.337Z,8.60
2018-09-03T09:00:39.427Z,9.53
2018-09-03T09:03:11.690Z,7.23
2018-09-03T09:05:39.782Z,8.13
2018-09-03T09:08:07.836Z,7.40
2018-09-03T09:10:35.846Z,7.83
2018-09-03T09:13:03.841Z,7.77
2018-09-03T09:15:31.922Z,7.33
2018-09-03T09:18:00.017Z,8.70
2018-09-03T09:20:28.206Z,7.47
2018-09-03T09:22:56.265Z,6.50
2018-09-03T09:25:24.294Z,6.80
2018-09-03T09:27:52.291Z,6.97
2018-09-03T09:30:20.302Z,6.97
2018-09-03T09:32:48.614Z,7.93
2018-09-03T09:35:16.609Z,8.33
2018-09-03T09:37:44.668Z,7.20
2018-09-03T09:40:13.177Z,8.40
2018-09-03T09:42:41.457Z,7.13
2018-09-03T09:45:10.043Z,7.00
2018-09-03T09:47:38.346Z,7.83
2018-09-03T09:50:06.349Z,8.10
2018-09-03T09:52:34.505Z,8.87
2018-09-03T09:55:02.905Z,8.80
2018-09-03T09:57:30.999Z,8.90
2018-09-03T09:59:59.317Z,8.90
2018-09-03T10:02:27.665Z,9.40
2018-09-03T10:04:55.857Z,7.13
2018-09-03T10:07:23.896Z,9.07
2018-09-03T10:09:51.900Z,9.73
2018-09-03T10:12:25.351Z,9.00
2018-09-03T10:14:53.402Z,8.93
2018-09-03T10:17:21.500Z,8.17
2018-09-03T10:19:49.541Z,8.50
2018-09-03T10:22:17.661Z,11.20
2018-09-03T10:24:45.758Z,8.73
2018-09-03T10:27:14.081Z,9.20
2018-09-03T10:29:42.323Z,9.30
2018-09-03T10:32:10.369Z,10.83
2018-09-03T10:34:39.010Z,10.63
2018-09-03T10:37:08.012Z,9.40
2018-09-03T10:39:36.045Z,9.27
2018-09-03T10:42:04.285Z,9.80
2018-09-03T10:44:32.574Z,8.30
2018-09-03T10:47:00.664Z,9.53
2018-09-03T10:49:29.158Z,9.53
2018-09-03T10:51:57.653Z,9.20
2018-09-03T10:54:25.662Z,8.70
2018-09-03T10:56:54.124Z,9.20
2018-09-03T10:59:22.157Z,8.77
2018-09-03T11:01:50.161Z,9.10
2018-09-03T11:04:18.209Z,9.20
2018-09-03T11:06:46.254Z,8.27
2018-09-03T11:09:14.350Z,9.00
2018-09-03T11:11:42.729Z,8.70
2018-09-03T11:14:10.732Z,9.10
2018-09-03T11:16:38.793Z,8.67
2018-09-03T11:19:06.839Z,9.57
2018-09-03T11:21:35.143Z,7.80
2018-09-03T11:24:03.253Z,8.60
2018-09-03T11:26:31.258Z,8.10
2018-09-03T11:28:59.257Z,9.00
2018-09-03T11:31:27.297Z,8.63
2018-09-03T11:33:55.385Z,8.87
2018-09-03T11:36:23.421Z,9.27
2018-09-03T11:38:51.427Z,8.97
2018-09-03T11:41:19.417Z,8.43
2018-09-03T11:43:47.593Z,7.80
2018-09-03T11:46:15.609Z,8.83
2018-09-03T11:48:43.826Z,9.70
2018-09-03T11:51:11.838Z,8.20
2018-09-03T11:53:39.829Z,7.80
2018-09-03T11:56:07.941Z,8.30
2018-09-03T11:58:36.296Z,8.60
2018-09-03T12:01:04.626Z,9.70
2018-09-03T12:03:32.703Z,9.00
2018-09-03T12:06:00.705Z,8.50
2018-09-03T12:08:28.769Z,9.70
2018-09-03T12:10:56.853Z,9.10
2018-09-03T12:13:24.944Z,9.80
2018-09-03T12:16:23.902Z,9.80
2018-09-03T12:18:52.585Z,8.83
2018-09-03T12:21:20.629Z,9.60
2018-09-03T12:23:48.682Z,8.17
2018-09-03T12:26:16.681Z,9.20
2018-09-03T12:28:51.217Z,9.03
2018-09-03T12:31:19.239Z,10.40
2018-09-03T12:33:47.240Z,8.93
2018-09-03T12:36:15.377Z,10.47
2018-09-03T12:38:44.494Z,8.00
2018-09-03T12:41:12.505Z,8.70
2018-09-03T12:43:40.497Z,9.10
2018-09-03T12:46:08.891Z,9.27
2018-09-03T12:48:36.986Z,9.13
2018-09-03T12:51:05.591Z,7.60
2018-09-03T12:53:33.861Z,8.67
2018-09-03T12:56:02.617Z,8.50
2018-09-03T12:58:30.668Z,8.10
2018-09-03T13:00:58.667Z,8.57
2018-09-03T13:03:26.711Z,9.47
2018-09-03T13:05:54.730Z,9.53
2018-09-03T13:08:22.845Z,9.60
2018-09-03T13:10:50.852Z,7.63
2018-09-03T13:13:18.861Z,8.20
2018-09-03T13:15:46.900Z,8.77
2018-09-03T13:18:14.963Z,7.40
2018-09-03T13:20:43.054Z,9.13
2018-09-03T13:23:11.133Z,10.53
2018-09-03T13:25:39.154Z,8.33
2018-09-03T13:28:07.184Z,8.60
2018-09-03T13:30:35.192Z,9.27
2018-09-03T13:33:03.229Z,9.03
2018-09-03T13:35:31.285Z,8.10
2018-09-03T13:37:59.330Z,8.00
2018-09-03T13:40:27.419Z,8.53
2018-09-03T13:42:55.901Z,7.87
2018-09-03T13:45:23.902Z,8.67
2018-09-03T13:47:51.893Z,7.27
2018-09-03T13:50:20.214Z,7.73
2018-09-03T13:52:48.213Z,8.00
2018-09-03T13:55:16.326Z,7.40
2018-09-03T13:57:44.553Z,8.20
2018-09-03T14:00:13.313Z,7.77
2018-09-03T14:02:41.597Z,8.53
2018-09-03T14:05:09.649Z,8.10
2018-09-03T14:07:37.965Z,8.30
2018-09-03T14:10:06.065Z,8.20
2018-09-03T14:12:34.004Z,7.80
2018-09-03T14:15:02.133Z,6.83
2018-09-03T14:17:30.121Z,7.10
2018-09-03T14:19:58.834Z,7.73
2018-09-03T14:22:26.821Z,9.20
2018-09-03T14:24:54.977Z,8.30
2018-09-03T14:27:23.093Z,8.23
2018-09-03T14:29:51.165Z,7.47
2018-09-03T14:32:19.286Z,6.83
2018-09-03T14:34:47.426Z,9.37
2018-09-03T14:37:15.596Z,6.13
2018-09-03T14:39:43.688Z,8.20
2018-09-03T14:42:11.813Z,9.30
2018-09-03T14:44:39.888Z,8.20
2018-09-03T14:47:07.943Z,7.10
2018-09-03T14:49:36.400Z,8.43
2018-09-03T14:52:04.677Z,7.50
2018-09-03T14:54:32.679Z,7.23
2018-09-03T14:57:01.101Z,7.53
2018-09-03T14:59:29.089Z,7.80
2018-09-03T15:01:57.367Z,7.90
2018-09-03T15:04:25.601Z,8.50
2018-09-03T15:06:53.653Z,7.93
2018-09-03T15:09:21.653Z,7.80
2018-09-03T15:11:49.722Z,8.63
2018-09-03T15:14:17.784Z,7.97
2018-09-03T15:16:45.874Z,7.40
2018-09-03T15:19:13.952Z,8.73
2018-09-03T15:21:42.010Z,8.43
2018-09-03T15:24:10.021Z,8.70
2018-09-03T15:26:38.057Z,9.00
2018-09-03T15:29:06.089Z,8.67
2018-09-03T15:31:34.169Z,7.90
2018-09-03T15:34:02.172Z,8.43
2018-09-03T15:36:30.381Z,8.03
2018-09-03T15:38:58.329Z,9.03
2018-09-03T15:41:27.335Z,7.63
2018-09-03T15:43:55.380Z,8.03
2018-09-03T15:46:23.421Z,7.73
2018-09-03T15:48:51.590Z,7.67
2018-09-03T15:51:19.665Z,7.63
2018-09-03T15:53:47.708Z,6.90
2018-09-03T15:56:15.709Z,6.87
2018-09-03T15:58:43.701Z,7.90
2018-09-03T16:01:11.802Z,7.50
2018-09-03T16:03:39.804Z,7.47
2018-09-03T16:06:07.841Z,7.03
2018-09-03T16:08:35.834Z,8.17
2018-09-03T16:11:03.936Z,7.47
2018-09-03T16:13:31.945Z,8.00
2018-09-03T16:16:00.002Z,6.80
2018-09-03T16:18:28.263Z,7.10
2018-09-03T16:20:56.968Z,7.40
2018-09-03T16:23:24.973Z,7.23
2018-09-03T16:25:52.977Z,7.33
2018-09-03T16:28:21.029Z,8.20
2018-09-03T16:30:49.115Z,8.80
2018-09-03T16:33:17.156Z,8.37
2018-09-03T16:35:45.257Z,7.63
2018-09-03T16:38:13.250Z,8.00
2018-09-03T16:40:41.345Z,8.53
2018-09-03T16:43:09.433Z,8.80
2018-09-03T16:45:37.477Z,8.40
2018-09-03T16:48:05.489Z,8.10
2018-09-03T16:50:33.586Z,8.60
2018-09-03T16:53:01.674Z,8.20
2018-09-03T16:55:29.674Z,7.00
2018-09-03T16:57:57.732Z,8.23
2018-09-03T17:00:25.832Z,7.73
2018-09-03T17:02:53.897Z,7.20
2018-09-03T17:05:21.929Z,9.40
2018-09-03T17:07:50.142Z,7.93
2018-09-03T17:10:18.153Z,8.33
2018-09-03T17:12:46.226Z,8.63
2018-09-03T17:15:14.634Z,8.00
2018-09-03T17:17:42.717Z,9.10
2018-09-03T17:20:10.728Z,7.50
2018-09-03T17:22:38.777Z,8.27
2018-09-03T17:25:06.865Z,7.57
2018-09-03T17:27:34.873Z,9.30
2018-09-03T17:30:03.038Z,7.90
2018-09-03T17:32:31.107Z,8.13
2018-09-03T17:34:59.205Z,8.07
2018-09-03T17:37:27.285Z,8.40
2018-09-03T17:39:55.365Z,8.67
2018-09-03T17:42:23.558Z,8.20
2018-09-03T17:44:51.601Z,8.33
2018-09-03T17:47:19.625Z,7.27
2018-09-03T17:49:47.680Z,8.73
2018-09-03T17:52:15.839Z,9.50
2018-09-03T17:54:43.981Z,9.37
2018-09-03T17:57:12.025Z,7.43
2018-09-03T17:59:40.139Z,7.13
2018-09-03T18:02:08.210Z,6.33
2018-09-03T18:04:36.236Z,7.30
2018-09-03T18:07:04.284Z,6.80
2018-09-03T18:09:32.281Z,5.50
2018-09-03T18:12:00.470Z,5.77
2018-09-03T18:14:28.513Z,5.87
2018-09-03T18:16:56.604Z,6.43
2018-09-03T18:19:24.881Z,5.73
2018-09-03T18:21:53.153Z,5.50
2018-09-03T18:24:21.149Z,5.40
2018-09-03T18:26:49.190Z,5.63
2018-09-03T18:29:17.237Z,6.70
2018-09-03T18:31:45.327Z,5.20
2018-09-03T18:34:13.373Z,4.87
2018-09-03T18:36:41.378Z,4.77
2018-09-03T18:39:09.461Z,5.47
2018-09-03T18:41:37.931Z,5.07
2018-09-03T18:44:06.072Z,6.37
2018-09-03T18:46:34.073Z,5.77
2018-09-03T18:49:02.688Z,5.60
2018-09-03T18:51:30.793Z,5.20
2018-09-03T18:53:59.047Z,5.40
2018-09-03T18:56:28.037Z,5.50
2018-09-03T18:58:56.058Z,5.97
2018-09-03T19:01:24.110Z,6.47
2018-09-03T19:03:52.249Z,6.33
2018-09-03T19:06:20.367Z,6.60
2018-09-03T19:08:48.413Z,5.97
2018-09-03T19:11:16.526Z,5.63
2018-09-03T19:13:44.573Z,5.97
2018-09-03T19:16:12.709Z,6.23
2018-09-03T19:18:40.701Z,6.30
2018-09-03T19:21:09.005Z,5.57
2018-09-03T19:23:37.005Z,6.33
2018-09-03T19:26:05.146Z,7.10
2018-09-03T19:28:33.319Z,6.60
2018-09-03T19:31:01.285Z,6.23
2018-09-03T19:33:29.302Z,6.37
2018-09-03T19:35:57.292Z,6.80
2018-09-03T19:38:25.566Z,6.30
2018-09-03T19:40:53.565Z,6.63
2018-09-03T19:43:21.625Z,7.40
2018-09-03T19:45:49.958Z,7.00
2018-09-03T19:48:17.953Z,6.53
2018-09-03T19:50:45.961Z,6.70
2018-09-03T19:53:14.028Z,6.90
2018-09-03T19:55:42.034Z,6.90
2018-09-03T19:58:10.081Z,6.83
2018-09-03T20:00:38.270Z,6.57
2018-09-03T20:03:07.629Z,6.93
2018-09-03T20:05:35.732Z,7.70
2018-09-03T20:08:03.747Z,6.40
2018-09-03T20:10:31.773Z,6.90
2018-09-03T20:13:00.145Z,6.70
2018-09-03T20:15:28.456Z,7.47
2018-09-03T20:17:56.572Z,6.57
2018-09-03T20:20:24.875Z,7.40
2018-09-03T20:22:52.915Z,7.57
2018-09-03T20:25:21.214Z,7.17
2018-09-03T20:27:49.908Z,6.70
2018-09-03T20:30:17.904Z,6.23
2018-09-03T20:32:45.917Z,6.97
2018-09-03T20:35:14.032Z,6.60
2018-09-03T20:37:42.074Z,5.90
2018-09-03T20:40:16.901Z,6.00
2018-09-03T20:42:44.951Z,7.30
2018-09-03T20:45:12.970Z,7.30
2018-09-03T20:47:41.035Z,6.70
2018-09-03T20:50:09.258Z,7.37
2018-09-03T20:52:37.719Z,7.30
2018-09-03T20:55:05.857Z,8.80
2018-09-03T20:57:33.985Z,7.53
2018-09-03T21:00:02.083Z,6.83
2018-09-03T21:02:30.082Z,7.40
2018-09-03T21:04:58.092Z,6.43
2018-09-03T21:07:26.420Z,8.17
2018-09-03T21:09:54.417Z,8.07
2018-09-03T21:12:22.429Z,8.07
2018-09-03T21:14:50.578Z,8.63
2018-09-03T21:17:18.578Z,7.47
2018-09-03T21:19:46.641Z,7.40
2018-09-03T21:22:14.641Z,7.37
2018-09-03T21:24:43.022Z,8.20
2018-09-03T21:27:11.026Z,8.33
2018-09-03T21:29:39.030Z,7.90
2018-09-03T21:32:07.077Z,8.63
2018-09-03T21:34:35.085Z,8.40
2018-09-03T21:37:03.090Z,7.57
2018-09-03T21:39:31.129Z,8.30
2018-09-03T21:41:59.133Z,7.83
2018-09-03T21:44:27.452Z,7.50
2018-09-03T21:46:55.880Z,6.90
2018-09-03T21:49:23.878Z,8.00
2018-09-03T21:51:51.912Z,8.63
2018-09-03T21:54:19.945Z,8.80
2018-09-03T21:56:48.007Z,8.97
2018-09-03T21:59:17.729Z,7.80
2018-09-03T22:01:45.754Z,8.60
2018-09-03T22:04:13.765Z,7.83
2018-09-03T22:06:41.789Z,7.17
2018-09-03T22:09:09.788Z,7.60
2018-09-03T22:11:37.831Z,8.33
2018-09-03T22:14:05.930Z,7.50
2018-09-03T22:16:34.210Z,8.43
2018-09-03T22:19:02.213Z,8.30
2018-09-03T22:21:30.227Z,8.57
2018-09-03T22:23:58.317Z,8.10
2018-09-03T22:26:26.349Z,7.60
2018-09-03T22:28:54.437Z,8.37
2018-09-03T22:31:22.486Z,8.40
2018-09-03T22:33:50.525Z,8.10
2018-09-03T22:36:18.596Z,8.17
2018-09-03T22:38:46.635Z,8.80
2018-09-03T22:41:14.663Z,8.40
2018-09-03T22:43:42.707Z,8.63
2018-09-03T22:46:10.751Z,7.97
2018-09-03T22:48:38.807Z,8.63
2018-09-03T22:51:06.816Z,9.90
2018-09-03T22:53:35.006Z,9.00
2018-09-03T22:56:03.052Z,8.97
2018-09-03T22:58:31.146Z,8.90
2018-09-03T23:00:59.230Z,8.00
2018-09-03T23:03:27.317Z,8.23
2018-09-03T23:05:55.318Z,9.60
2018-09-03T23:08:23.473Z,7.70
2018-09-03T23:10:51.518Z,8.93
2018-09-03T23:13:19.566Z,7.43
2018-09-03T23:15:52.644Z,7.60
2018-09-03T23:18:21.823Z,8.47
2018-09-03T23:20:49.818Z,8.00
2018-09-03T23:23:17.826Z,8.30
2018-09-03T23:25:46.654Z,8.10
2018-09-03T23:28:14.665Z,7.70
2018-09-03T23:30:42.974Z,7.70
2018-09-03T23:33:11.688Z,9.17
2018-09-03T23:35:39.773Z,7.93
2018-09-03T23:38:07.816Z,8.80
2018-09-03T23:40:36.250Z,9.03
2018-09-03T23:43:04.257Z,7.37
2018-09-03T23:45:32.312Z,8.30
2018-09-03T23:48:00.623Z,8.00
2018-09-03T23:50:28.700Z,8.00
2018-09-03T23:52:57.281Z,7.80
2018-09-03T23:55:25.316Z,9.20
2018-09-03T23:57:53.661Z,9.63
